Time;durP1;ratioP1;P1;durP2;ratioP2;P2;SDS_P1;SDS_P2;PMS_P1;PMS_P2;Temp;Humidity;BMP_temperature;BMP_pressure;BME280_temperature;BME280_humidity;BME280_pressure;Samples;Min_cycle;Max_cycle;Signal;HPM_P1;HPM_P2
2022/06/03 00:00:00;;;;;;;4.57;4.10;;;;;;;;;;4977463;28;20214;-79
2022/06/03 00:03:05;;;;;;;6.70;4.57;;;;;;;;;;5010180;28;20184;-80
2022/06/03 00:06:04;;;;;;;5.00;4.50;;;;;;;;;;5009986;28;20195;-79
2022/06/03 00:09:03;;;;;;;5.93;4.47;;;;;;;;;;5018175;28;20570;-79
2022/06/03 00:11:49;;;;;;;5.70;5.20;;;;;;;;;;5007681;28;20256;-79
2022/06/03 00:14:35;;;;;;;8.93;5.80;;;;;;;;;;5009819;28;20251;-79
2022/06/03 00:17:11;;;;;;;6.13;4.80;;;;;;;;;;5009844;28;20203;-79
2022/06/03 00:19:51;;;;;;;9.30;4.97;;;;;;;;;;5008585;28;20191;-79
2022/06/03 00:22:39;;;;;;;5.70;4.70;;;;;;;;;;5010133;28;20191;-79
2022/06/03 00:25:44;;;;;;;6.90;5.00;;;;;;;;;;5009684;28;20212;-79
2022/06/03 00:28:26;;;;;;;5.83;5.33;;;;;;;;;;5003794;28;20195;-80
2022/06/03 00:31:06;;;;;;;7.90;5.73;;;;;;;;;;5009853;28;20188;-79
2022/06/03 00:33:49;;;;;;;5.87;5.27;;;;;;;;;;5009577;28;20286;-79
2022/06/03 00:36:55;;;;;;;10.00;4.73;;;;;;;;;;5009401;28;20179;-79
2022/06/03 00:39:44;;;;;;;5.63;5.13;;;;;;;;;;5014283;28;20203;-79
2022/06/03 00:42:29;;;;;;;5.43;4.90;;;;;;;;;;5012273;28;20227;-79
2022/06/03 00:45:08;;;;;;;6.27;4.93;;;;;;;;;;5008941;28;20256;-79
2022/06/03 00:47:48;;;;;;;6.43;5.10;;;;;;;;;;5009144;28;20564;-79
2022/06/03 00:50:31;;;;;;;8.73;5.87;;;;;;;;;;5011185;28;20239;-79
2022/06/03 00:53:37;;;;;;;6.27;5.10;;;;;;;;;;5029307;28;20247;-79
2022/06/03 00:56:39;;;;;;;6.00;5.03;;;;;;;;;;5022290;28;20199;-79
2022/06/03 00:59:20;;;;;;;5.00;4.60;;;;;;;;;;5029013;28;20270;-79
2022/06/03 01:01:55;;;;;;;5.63;5.10;;;;;;;;;;5029197;28;20191;-79
2022/06/03 01:04:35;;;;;;;6.07;5.57;;;;;;;;;;5028918;28;20187;-79
2022/06/03 01:07:13;;;;;;;6.40;4.70;;;;;;;;;;5028810;28;20182;-79
2022/06/03 01:10:03;;;;;;;8.27;5.47;;;;;;;;;;5028808;28;20659;-79
2022/06/03 01:12:55;;;;;;;5.33;4.93;;;;;;;;;;5028840;28;20243;-79
2022/06/03 01:15:29;;;;;;;5.80;5.30;;;;;;;;;;5028473;28;20191;-76
2022/06/03 01:18:07;;;;;;;9.10;5.20;;;;;;;;;;5011852;28;20737;-75
2022/06/03 01:20:37;;;;;;;7.43;5.37;;;;;;;;;;5009255;28;20227;-76
2022/06/03 01:23:30;;;;;;;5.80;5.03;;;;;;;;;;5009299;28;20188;-75
2022/06/03 01:26:26;;;;;;;7.97;5.13;;;;;;;;;;5008549;28;20282;-76
2022/06/03 01:29:14;;;;;;;5.37;4.87;;;;;;;;;;5008967;28;20645;-75
2022/06/03 01:32:23;;;;;;;6.73;5.10;;;;;;;;;;5012062;28;20195;-76
2022/06/03 01:35:10;;;;;;;6.50;5.10;;;;;;;;;;5012023;28;20192;-75
2022/06/03 01:37:45;;;;;;;5.73;5.27;;;;;;;;;;5012550;28;20204;-75
2022/06/03 01:40:30;;;;;;;11.83;5.70;;;;;;;;;;5012515;28;20241;-75
2022/06/03 01:43:30;;;;;;;5.97;5.47;;;;;;;;;;5012467;28;20226;-76
2022/06/03 01:46:13;;;;;;;6.50;5.90;;;;;;;;;;5011778;28;20233;-75
2022/06/03 01:48:59;;;;;;;7.43;5.27;;;;;;;;;;5012344;28;20194;-75
2022/06/03 01:51:45;;;;;;;5.67;4.93;;;;;;;;;;5018867;28;20298;-75
2022/06/03 01:54:41;;;;;;;8.83;5.20;;;;;;;;;;5031813;28;20248;-75
2022/06/03 01:57:18;;;;;;;5.40;5.00;;;;;;;;;;4999080;28;20212;-75
2022/06/03 02:00:14;;;;;;;7.67;5.67;;;;;;;;;;5012166;28;20268;-75
2022/06/03 02:03:20;;;;;;;9.87;5.40;;;;;;;;;;5012055;28;20284;-75
2022/06/03 02:06:09;;;;;;;9.90;5.87;;;;;;;;;;5011959;28;20188;-75
2022/06/03 02:09:16;;;;;;;6.07;5.50;;;;;;;;;;5011904;28;20241;-75
2022/06/03 02:11:53;;;;;;;6.93;5.17;;;;;;;;;;5011989;28;20187;-75
2022/06/03 02:14:53;;;;;;;9.70;5.27;;;;;;;;;;5011847;28;20195;-75
2022/06/03 02:17:38;;;;;;;6.03;4.77;;;;;;;;;;5011667;28;20211;-75
2022/06/03 02:20:24;;;;;;;5.23;4.73;;;;;;;;;;5011589;28;20188;-75
2022/06/03 02:23:17;;;;;;;5.83;5.23;;;;;;;;;;5011707;28;20221;-75
2022/06/03 02:25:59;;;;;;;5.57;5.00;;;;;;;;;;5037806;28;20210;-75
2022/06/03 02:31:56;;;;;;;5.13;4.57;;;;;;;;;;5011259;28;20713;-75
2022/06/03 02:34:34;;;;;;;5.27;4.77;;;;;;;;;;5011466;28;20191;-75
2022/06/03 02:37:37;;;;;;;6.30;4.45;;;;;;;;;;5011117;28;20183;-75
2022/06/03 02:40:26;;;;;;;5.83;4.77;;;;;;;;;;5011495;28;20711;-76
2022/06/03 02:43:31;;;;;;;5.10;4.57;;;;;;;;;;5010511;28;20239;-75
2022/06/03 02:46:36;;;;;;;8.07;5.00;;;;;;;;;;5010701;28;20216;-75
2022/06/03 02:49:54;;;;;;;5.27;4.77;;;;;;;;;;5012599;28;20248;-75
2022/06/03 02:52:54;;;;;;;5.33;4.13;;;;;;;;;;5031959;28;20195;-75
2022/06/03 02:55:35;;;;;;;5.83;5.03;;;;;;;;;;5010724;28;20206;-75
2022/06/03 02:58:26;;;;;;;6.43;4.30;;;;;;;;;;5010995;28;20204;-75
2022/06/03 03:01:16;;;;;;;9.13;5.30;;;;;;;;;;5011198;28;20192;-75
2022/06/03 03:03:57;;;;;;;7.73;4.93;;;;;;;;;;5011429;28;20653;-75
2022/06/03 03:06:41;;;;;;;6.73;5.30;;;;;;;;;;5010654;28;20252;-75
2022/06/03 03:09:21;;;;;;;9.53;5.60;;;;;;;;;;5011324;28;20227;-75
2022/06/03 03:12:17;;;;;;;5.83;5.20;;;;;;;;;;5010739;28;20279;-75
2022/06/03 03:15:14;;;;;;;6.87;5.57;;;;;;;;;;5010840;28;20191;-75
2022/06/03 03:17:59;;;;;;;5.20;4.80;;;;;;;;;;5014625;28;20227;-76
2022/06/03 03:20:56;;;;;;;6.20;5.60;;;;;;;;;;5010896;28;20188;-75
2022/06/03 03:23:48;;;;;;;5.50;4.53;;;;;;;;;;5010686;28;20278;-75
2022/06/03 03:26:25;;;;;;;6.77;5.70;;;;;;;;;;5010660;28;20210;-75
2022/06/03 03:29:10;;;;;;;5.13;4.33;;;;;;;;;;5010582;28;20187;-75
2022/06/03 03:31:57;;;;;;;7.27;4.83;;;;;;;;;;5010514;28;20222;-75
2022/06/03 03:34:55;;;;;;;6.77;4.50;;;;;;;;;;5010698;28;20656;-75
2022/06/03 03:37:58;;;;;;;5.23;4.80;;;;;;;;;;5010348;28;20203;-75
2022/06/03 03:40:53;;;;;;;5.20;4.73;;;;;;;;;;5010145;28;20219;-75
2022/06/03 03:43:57;;;;;;;5.60;5.10;;;;;;;;;;5018094;28;20199;-75
2022/06/03 03:46:56;;;;;;;7.43;5.03;;;;;;;;;;5010454;28;20343;-76
2022/06/03 03:50:02;;;;;;;6.17;5.13;;;;;;;;;;5010381;28;20241;-76
2022/06/03 03:53:00;;;;;;;7.97;5.07;;;;;;;;;;5019045;28;20264;-76
2022/06/03 03:55:51;;;;;;;7.23;5.57;;;;;;;;;;5010019;28;20623;-76
2022/06/03 03:58:40;;;;;;;6.63;4.90;;;;;;;;;;5010375;28;20223;-76
2022/06/03 04:01:35;;;;;;;5.73;5.13;;;;;;;;;;5010207;28;20643;-76
2022/06/03 04:04:20;;;;;;;5.10;4.63;;;;;;;;;;5010368;28;20191;-76
2022/06/03 04:07:11;;;;;;;5.97;5.47;;;;;;;;;;5009966;28;20213;-76
2022/06/03 04:10:00;;;;;;;5.43;4.87;;;;;;;;;;5010092;28;20222;-76
2022/06/03 04:13:07;;;;;;;5.40;4.87;;;;;;;;;;5001816;28;20267;-76
2022/06/03 04:16:03;;;;;;;5.57;4.70;;;;;;;;;;5023031;28;20281;-76
2022/06/03 04:18:58;;;;;;;6.53;5.20;;;;;;;;;;4984551;28;20231;-76
2022/06/03 04:21:44;;;;;;;7.27;5.37;;;;;;;;;;5013437;28;20256;-76
2022/06/03 04:24:54;;;;;;;5.07;4.60;;;;;;;;;;5009817;28;20226;-76
2022/06/03 04:27:54;;;;;;;7.47;5.60;;;;;;;;;;5014704;28;20207;-79
2022/06/03 04:30:40;;;;;;;8.03;5.47;;;;;;;;;;4993714;28;21018;-77
2022/06/03 04:33:45;;;;;;;6.67;5.63;;;;;;;;;;5023544;28;20236;-78
2022/06/03 04:36:57;;;;;;;5.77;5.20;;;;;;;;;;5029436;28;20219;-78
2022/06/03 04:39:54;;;;;;;7.53;6.07;;;;;;;;;;5029515;28;20268;-78
2022/06/03 04:43:02;;;;;;;8.53;6.00;;;;;;;;;;4994275;28;20203;-81
2022/06/03 04:45:47;;;;;;;6.77;5.67;;;;;;;;;;5030477;28;20272;-80
2022/06/03 04:48:55;;;;;;;7.97;5.57;;;;;;;;;;5029442;28;20240;-81
2022/06/03 04:52:15;;;;;;;5.23;4.83;;;;;;;;;;5028660;28;20234;-81
2022/06/03 04:55:23;;;;;;;6.20;5.70;;;;;;;;;;5018150;28;20211;-81
2022/06/03 04:58:17;;;;;;;5.90;4.87;;;;;;;;;;5006894;28;20199;-81
2022/06/03 05:01:17;;;;;;;7.47;6.17;;;;;;;;;;5009326;28;20260;-81
2022/06/03 05:04:11;;;;;;;8.70;5.70;;;;;;;;;;5003148;28;20200;-81
2022/06/03 05:07:25;;;;;;;6.47;5.77;;;;;;;;;;5008839;28;20215;-81
2022/06/03 05:10:32;;;;;;;9.33;5.60;;;;;;;;;;5009087;28;20183;-81
2022/06/03 05:13:49;;;;;;;7.93;6.53;;;;;;;;;;4996877;28;20252;-81
2022/06/03 05:16:48;;;;;;;9.60;5.80;;;;;;;;;;5006660;28;20591;-81
2022/06/03 05:19:43;;;;;;;5.80;5.27;;;;;;;;;;5009283;28;20645;-81
2022/06/03 05:22:34;;;;;;;5.77;5.17;;;;;;;;;;5009249;28;20706;-81
2022/06/03 05:25:33;;;;;;;10.60;6.00;;;;;;;;;;5008831;28;20240;-81
2022/06/03 05:28:35;;;;;;;7.13;5.73;;;;;;;;;;4996556;28;20203;-82
2022/06/03 05:31:50;;;;;;;5.47;5.03;;;;;;;;;;5009122;28;20671;-81
2022/06/03 05:34:49;;;;;;;6.63;5.97;;;;;;;;;;4962719;28;20235;-81
2022/06/03 05:37:54;;;;;;;8.20;5.60;;;;;;;;;;5009020;28;20616;-81
2022/06/03 05:40:35;;;;;;;6.43;5.93;;;;;;;;;;5008487;28;20284;-81
2022/06/03 05:43:27;;;;;;;6.27;5.70;;;;;;;;;;5008781;28;20282;-82
2022/06/03 05:46:06;;;;;;;6.83;5.20;;;;;;;;;;5008381;28;20657;-82
2022/06/03 05:48:56;;;;;;;6.37;5.70;;;;;;;;;;5008761;28;20270;-82
2022/06/03 05:51:58;;;;;;;6.70;5.97;;;;;;;;;;5008407;28;20235;-81
2022/06/03 05:54:45;;;;;;;6.30;5.60;;;;;;;;;;4994764;28;20626;-81
2022/06/03 05:57:22;;;;;;;5.60;5.03;;;;;;;;;;5008805;28;20215;-82
2022/06/03 05:59:58;;;;;;;7.37;5.77;;;;;;;;;;5008778;28;20211;-82
2022/06/03 06:02:32;;;;;;;6.23;5.70;;;;;;;;;;5008656;28;20192;-82
2022/06/03 06:05:10;;;;;;;8.70;5.70;;;;;;;;;;5008519;28;20245;-82
2022/06/03 06:07:43;;;;;;;5.90;5.40;;;;;;;;;;5008893;28;20624;-81
2022/06/03 06:10:15;;;;;;;13.67;6.73;;;;;;;;;;5008660;28;20192;-82
2022/06/03 06:12:55;;;;;;;7.33;5.53;;;;;;;;;;5008787;28;20211;-82
2022/06/03 06:15:49;;;;;;;7.83;5.67;;;;;;;;;;5008176;28;20180;-82
2022/06/03 06:18:25;;;;;;;5.73;5.23;;;;;;;;;;5010670;28;20191;-81
2022/06/03 06:21:00;;;;;;;6.07;5.47;;;;;;;;;;5011616;28;20215;-81
2022/06/03 06:23:39;;;;;;;5.80;4.50;;;;;;;;;;5011912;28;20274;-81
2022/06/03 06:26:40;;;;;;;6.10;5.40;;;;;;;;;;5011221;28;20192;-81
2022/06/03 06:29:34;;;;;;;6.43;5.40;;;;;;;;;;5011869;28;20200;-81
2022/06/03 06:32:26;;;;;;;5.97;5.20;;;;;;;;;;4999323;28;20290;-82
2022/06/03 06:35:37;;;;;;;6.87;5.57;;;;;;;;;;5011100;28;20240;-81
2022/06/03 06:38:08;;;;;;;6.20;5.47;;;;;;;;;;5011740;28;20188;-82
2022/06/03 06:40:47;;;;;;;5.90;5.30;;;;;;;;;;5011497;28;20245;-81
2022/06/03 06:43:32;;;;;;;9.57;5.27;;;;;;;;;;5011371;28;20576;-82
2022/06/03 06:46:03;;;;;;;5.93;5.23;;;;;;;;;;5010546;28;20217;-82
2022/06/03 06:48:41;;;;;;;5.87;5.40;;;;;;;;;;5025959;28;20242;-81
2022/06/03 06:51:24;;;;;;;6.33;5.50;;;;;;;;;;5030717;28;20283;-81
2022/06/03 06:53:55;;;;;;;6.17;5.40;;;;;;;;;;5030699;28;20215;-81
2022/06/03 06:56:27;;;;;;;7.57;5.30;;;;;;;;;;5031077;28;20224;-82
2022/06/03 06:58:57;;;;;;;6.73;4.90;;;;;;;;;;5031090;28;20214;-82
2022/06/03 07:01:28;;;;;;;4.80;4.40;;;;;;;;;;5030627;28;20198;-81
2022/06/03 07:03:58;;;;;;;6.20;5.07;;;;;;;;;;5031141;28;20207;-82
2022/06/03 07:06:30;;;;;;;8.77;5.37;;;;;;;;;;5031359;28;20198;-82
2022/06/03 07:09:22;;;;;;;6.60;4.73;;;;;;;;;;5030687;28;20203;-82
2022/06/03 07:11:55;;;;;;;6.17;5.57;;;;;;;;;;5030483;28;20187;-82
2022/06/03 07:14:26;;;;;;;5.93;4.78;;;;;;;;;;5030661;28;20175;-82
2022/06/03 07:19:50;;;;;;;4.85;4.30;;;;;;;;;;5009690;28;20222;-81
2022/06/03 07:22:22;;;;;;;6.43;5.15;;;;;;;;;;5030593;28;20202;-82
2022/06/03 07:24:54;;;;;;;9.80;4.88;;;;;;;;;;5030333;28;20223;-81
2022/06/03 07:27:27;;;;;;;4.78;4.28;;;;;;;;;;5030175;28;20240;-83
2022/06/03 07:30:00;;;;;;;6.20;4.03;;;;;;;;;;5030168;28;20572;-82
2022/06/03 07:32:31;;;;;;;5.22;4.80;;;;;;;;;;5030374;28;20183;-82
2022/06/03 07:35:01;;;;;;;4.65;4.35;;;;;;;;;;5030043;28;20650;-82
2022/06/03 07:37:33;;;;;;;5.47;4.35;;;;;;;;;;5030521;28;20210;-81
2022/06/03 07:40:02;;;;;;;6.60;4.72;;;;;;;;;;5030059;28;20260;-82
2022/06/03 07:42:38;;;;;;;5.97;4.78;;;;;;;;;;5030465;28;20195;-82
2022/06/03 07:45:32;;;;;;;6.13;4.57;;;;;;;;;;5030291;28;20213;-81
2022/06/03 07:48:00;;;;;;;4.80;4.15;;;;;;;;;;5030487;28;20220;-82
2022/06/03 07:50:28;;;;;;;6.05;4.82;;;;;;;;;;5029540;28;20287;-82
2022/06/03 07:52:59;;;;;;;5.75;4.60;;;;;;;;;;5030023;28;20203;-81
2022/06/03 07:55:28;;;;;;;7.13;4.85;;;;;;;;;;5030076;28;20195;-82
2022/06/03 07:58:02;;;;;;;7.32;4.45;;;;;;;;;;5030185;28;20207;-82
2022/06/03 08:00:30;;;;;;;5.47;4.60;;;;;;;;;;5029789;28;20278;-82
2022/06/03 08:03:05;;;;;;;4.65;4.25;;;;;;;;;;5030190;28;20198;-82
2022/06/03 08:05:33;;;;;;;5.13;4.70;;;;;;;;;;5029842;28;20223;-82
2022/06/03 08:10:58;;;;;;;9.18;4.35;;;;;;;;;;5029650;28;20228;-82
2022/06/03 08:13:28;;;;;;;7.32;4.30;;;;;;;;;;5030142;28;20612;-82
2022/06/03 08:15:58;;;;;;;11.35;4.57;;;;;;;;;;5029537;28;20251;-81
2022/06/03 08:18:27;;;;;;;5.63;3.83;;;;;;;;;;5029821;28;20560;-82
2022/06/03 08:20:57;;;;;;;5.65;4.32;;;;;;;;;;5029366;28;20768;-82
2022/06/03 08:23:25;;;;;;;5.95;4.50;;;;;;;;;;5029874;28;20558;-82
2022/06/03 08:25:55;;;;;;;6.72;4.40;;;;;;;;;;5029345;28;20302;-82
2022/06/03 08:28:24;;;;;;;5.15;4.05;;;;;;;;;;5029515;28;20234;-82
2022/06/03 08:30:55;;;;;;;6.63;4.50;;;;;;;;;;5029316;28;20583;-82
2022/06/03 08:33:30;;;;;;;4.63;4.28;;;;;;;;;;5029831;28;20195;-82
2022/06/03 08:35:57;;;;;;;4.75;4.25;;;;;;;;;;5029310;28;20186;-82
2022/06/03 08:38:27;;;;;;;6.43;5.00;;;;;;;;;;5029620;28;20585;-82
2022/06/03 08:41:05;;;;;;;6.40;4.20;;;;;;;;;;5028258;28;20643;-82
2022/06/03 08:43:41;;;;;;;4.93;4.20;;;;;;;;;;5029630;28;20247;-82
2022/06/03 08:46:15;;;;;;;6.05;4.00;;;;;;;;;;5029105;28;20647;-82
2022/06/03 08:48:44;;;;;;;4.82;4.25;;;;;;;;;;5029438;28;20187;-81
2022/06/03 08:51:13;;;;;;;5.65;4.22;;;;;;;;;;5028967;28;20231;-82
2022/06/03 08:53:44;;;;;;;7.75;4.70;;;;;;;;;;5029529;28;20191;-82
2022/06/03 08:56:12;;;;;;;6.30;4.20;;;;;;;;;;5029001;28;20194;-82
2022/06/03 08:58:45;;;;;;;6.18;4.50;;;;;;;;;;5029054;28;20199;-83
2022/06/03 09:01:20;;;;;;;5.55;4.95;;;;;;;;;;5028973;28;20206;-82
2022/06/03 09:03:52;;;;;;;5.00;4.47;;;;;;;;;;5029073;28;20247;-83
2022/06/03 09:06:32;;;;;;;4.63;4.22;;;;;;;;;;5028816;28;20255;-82
2022/06/03 09:09:04;;;;;;;6.25;3.97;;;;;;;;;;5028999;28;20187;-82
2022/06/03 09:11:36;;;;;;;6.97;4.50;;;;;;;;;;5028481;28;20212;-82
2022/06/03 09:14:06;;;;;;;5.95;4.18;;;;;;;;;;5028935;28;20183;-82
2022/06/03 09:16:35;;;;;;;11.32;4.72;;;;;;;;;;5028982;28;20191;-83
2022/06/03 09:19:05;;;;;;;5.13;4.35;;;;;;;;;;5028955;28;20198;-82
2022/06/03 09:21:34;;;;;;;5.53;4.70;;;;;;;;;;5028730;28;20571;-82
2022/06/03 09:24:07;;;;;;;5.70;4.28;;;;;;;;;;5028776;28;20195;-82
2022/06/03 09:26:38;;;;;;;5.05;4.18;;;;;;;;;;5028909;28;20555;-82
2022/06/03 09:29:07;;;;;;;4.60;4.18;;;;;;;;;;5029041;28;20187;-82
2022/06/03 09:31:37;;;;;;;6.82;4.47;;;;;;;;;;5028401;28;20234;-82
2022/06/03 09:34:06;;;;;;;4.95;4.47;;;;;;;;;;5028751;28;20672;-82
2022/06/03 09:36:34;;;;;;;3.72;3.42;;;;;;;;;;5028465;28;20199;-82
2022/06/03 09:39:04;;;;;;;4.45;4.03;;;;;;;;;;5028964;28;20255;-82
2022/06/03 09:41:34;;;;;;;12.35;4.20;;;;;;;;;;5028503;28;20218;-83
2022/06/03 09:44:03;;;;;;;6.53;4.63;;;;;;;;;;5028641;28;20187;-83
2022/06/03 09:46:31;;;;;;;5.07;4.15;;;;;;;;;;5028349;28;20245;-82
2022/06/03 09:49:01;;;;;;;5.10;4.28;;;;;;;;;;5028487;28;20290;-82
2022/06/03 09:54:12;;;;;;;7.75;3.88;;;;;;;;;;5031698;28;20230;-83
2022/06/03 09:56:39;;;;;;;7.05;4.75;;;;;;;;;;5031940;28;20207;-82
2022/06/03 09:59:07;;;;;;;5.22;3.88;;;;;;;;;;5031538;28;20199;-83
2022/06/03 10:01:34;;;;;;;4.75;4.03;;;;;;;;;;5031568;28;20262;-82
2022/06/03 10:04:05;;;;;;;9.25;4.22;;;;;;;;;;5032020;28;20211;-83
2022/06/03 10:06:46;;;;;;;4.13;3.72;;;;;;;;;;5031668;28;20640;-83
2022/06/03 10:14:43;;;;;;;9.02;4.18;;;;;;;;;;5031712;28;20182;-82
2022/06/03 10:17:11;;;;;;;7.45;3.95;;;;;;;;;;5031787;28;20229;-84
2022/06/03 10:19:39;;;;;;;4.45;3.95;;;;;;;;;;5031140;28;20265;-83
2022/06/03 10:22:09;;;;;;;6.72;3.83;;;;;;;;;;5031452;28;20191;-83
2022/06/03 10:24:37;;;;;;;7.35;3.90;;;;;;;;;;5031640;28;20199;-84
2022/06/03 10:27:07;;;;;;;8.25;3.90;;;;;;;;;;5031359;28;20205;-83
2022/06/03 10:29:48;;;;;;;5.63;4.00;;;;;;;;;;5031361;28;20203;-82
2022/06/03 10:32:18;;;;;;;4.93;3.60;;;;;;;;;;5031686;28;20190;-83
2022/06/03 10:34:47;;;;;;;4.43;3.78;;;;;;;;;;5031240;28;20209;-83
2022/06/03 10:37:18;;;;;;;6.03;4.10;;;;;;;;;;5031181;28;20198;-82
2022/06/03 10:39:45;;;;;;;4.40;3.78;;;;;;;;;;5031066;28;20210;-82
2022/06/03 10:42:17;;;;;;;9.15;3.80;;;;;;;;;;5031109;28;20230;-83
2022/06/03 10:44:46;;;;;;;4.47;4.03;;;;;;;;;;5031310;28;20275;-83
2022/06/03 10:47:17;;;;;;;4.53;3.83;;;;;;;;;;5031121;28;20244;-83
2022/06/03 10:49:53;;;;;;;5.70;3.72;;;;;;;;;;5031277;28;20631;-83
2022/06/03 11:01:08;;;;;;;6.88;4.03;;;;;;;;;;4991503;28;20230;-83
2022/06/03 11:03:37;;;;;;;8.73;3.40;;;;;;;;;;4990979;28;20196;-83
2022/06/03 11:06:08;;;;;;;7.57;3.53;;;;;;;;;;4991678;28;20639;-82
2022/06/03 11:08:48;;;;;;;6.10;4.30;;;;;;;;;;4991857;28;20641;-83
2022/06/03 11:11:15;;;;;;;6.28;3.88;;;;;;;;;;4991679;28;20585;-83
2022/06/03 11:13:42;;;;;;;4.35;3.90;;;;;;;;;;4991685;28;20212;-83
2022/06/03 11:16:16;;;;;;;4.40;4.00;;;;;;;;;;4991056;28;20639;-83
2022/06/03 11:18:43;;;;;;;5.60;4.57;;;;;;;;;;4991322;28;20279;-83
2022/06/03 11:21:22;;;;;;;12.18;5.00;;;;;;;;;;4991129;28;20314;-84
2022/06/03 11:23:50;;;;;;;6.65;4.22;;;;;;;;;;4991687;28;20188;-83
2022/06/03 11:26:17;;;;;;;4.45;4.00;;;;;;;;;;4991156;28;20270;-82
2022/06/03 11:28:59;;;;;;;5.13;4.50;;;;;;;;;;4991421;28;20634;-83
2022/06/03 11:31:29;;;;;;;6.47;4.43;;;;;;;;;;4991033;28;20192;-84
2022/06/03 11:34:02;;;;;;;5.78;3.97;;;;;;;;;;4990998;28;20218;-82
2022/06/03 11:36:34;;;;;;;5.90;4.20;;;;;;;;;;4990896;28;20185;-83
2022/06/03 11:39:04;;;;;;;6.80;4.47;;;;;;;;;;4991336;28;20217;-83
2022/06/03 11:41:33;;;;;;;5.90;4.10;;;;;;;;;;4991068;28;20273;-82
2022/06/03 11:44:05;;;;;;;7.57;4.30;;;;;;;;;;4990678;28;20268;-82
2022/06/03 11:46:35;;;;;;;5.55;4.50;;;;;;;;;;4990686;28;20224;-83
2022/06/03 11:49:03;;;;;;;4.38;4.05;;;;;;;;;;4991186;28;20192;-82
2022/06/03 11:51:32;;;;;;;7.78;4.60;;;;;;;;;;5016875;28;20238;-83
2022/06/03 11:53:59;;;;;;;4.10;3.80;;;;;;;;;;5030185;28;20194;-82
2022/06/03 11:56:28;;;;;;;6.03;4.30;;;;;;;;;;5029918;28;20230;-82
2022/06/03 11:59:01;;;;;;;4.82;4.18;;;;;;;;;;5029989;28;20238;-83
2022/06/03 12:01:35;;;;;;;10.27;4.32;;;;;;;;;;5030034;28;20207;-83
2022/06/03 12:04:11;;;;;;;5.20;4.20;;;;;;;;;;5030001;28;20291;-83
2022/06/03 12:06:42;;;;;;;4.70;4.20;;;;;;;;;;5029789;28;20201;-82
2022/06/03 12:09:29;;;;;;;5.28;4.35;;;;;;;;;;5029886;28;20218;-83
2022/06/03 12:14:46;;;;;;;6.45;4.43;;;;;;;;;;5029463;28;20562;-82
2022/06/03 12:17:31;;;;;;;5.35;4.55;;;;;;;;;;5029654;28;20293;-82
2022/06/03 12:19:58;;;;;;;4.85;4.35;;;;;;;;;;5029638;28;20247;-82
2022/06/03 12:22:39;;;;;;;8.07;4.35;;;;;;;;;;5029710;28;20255;-82
2022/06/03 12:25:28;;;;;;;11.90;4.65;;;;;;;;;;5029480;28;20183;-83
2022/06/03 12:27:56;;;;;;;3.92;3.60;;;;;;;;;;5029603;28;20281;-82
2022/06/03 12:30:37;;;;;;;5.50;4.35;;;;;;;;;;5029102;28;20752;-83
2022/06/03 12:33:07;;;;;;;6.45;4.70;;;;;;;;;;5029872;28;20240;-83
2022/06/03 12:36:07;;;;;;;4.93;4.50;;;;;;;;;;5029765;28;20195;-83
2022/06/03 12:38:59;;;;;;;7.68;4.65;;;;;;;;;;5029511;28;20212;-83
2022/06/03 12:42:01;;;;;;;5.07;4.55;;;;;;;;;;5029132;28;20203;-83
2022/06/03 12:44:51;;;;;;;8.32;4.75;;;;;;;;;;5029028;28;20267;-82
2022/06/03 12:47:28;;;;;;;9.88;4.55;;;;;;;;;;5029416;28;20183;-83
2022/06/03 12:49:56;;;;;;;6.07;4.03;;;;;;;;;;5028809;28;20262;-83
2022/06/03 12:52:43;;;;;;;4.75;3.78;;;;;;;;;;5030140;28;20195;-84
2022/06/03 12:55:23;;;;;;;4.18;3.78;;;;;;;;;;5029041;28;20719;-82
2022/06/03 12:57:52;;;;;;;6.47;4.20;;;;;;;;;;5029177;28;20205;-83
2022/06/03 13:00:27;;;;;;;5.07;3.60;;;;;;;;;;5028813;28;20755;-84
2022/06/03 13:02:55;;;;;;;4.63;4.22;;;;;;;;;;5029109;28;20185;-82
2022/06/03 13:05:29;;;;;;;5.22;4.50;;;;;;;;;;5028822;28;20260;-83
2022/06/03 13:07:59;;;;;;;4.22;3.83;;;;;;;;;;5028832;28;20210;-83
2022/06/03 13:10:44;;;;;;;6.45;4.22;;;;;;;;;;5028823;28;20281;-83
2022/06/03 13:13:35;;;;;;;5.47;4.18;;;;;;;;;;5028892;28;20224;-83
2022/06/03 13:16:39;;;;;;;7.88;3.90;;;;;;;;;;5028804;28;20236;-82
2022/06/03 13:19:42;;;;;;;4.03;3.70;;;;;;;;;;5028877;28;20557;-82
2022/06/03 13:22:09;;;;;;;4.15;3.70;;;;;;;;;;4968067;28;20228;-82
2022/06/03 13:24:37;;;;;;;5.70;3.70;;;;;;;;;;5016949;28;20771;-82
2022/06/03 13:27:28;;;;;;;6.63;4.03;;;;;;;;;;5031019;28;20194;-82
2022/06/03 13:30:14;;;;;;;9.00;5.03;;;;;;;;;;5032385;28;20618;-83
2022/06/03 13:32:53;;;;;;;4.82;3.95;;;;;;;;;;5032778;28;20190;-83
2022/06/03 13:35:23;;;;;;;4.43;4.00;;;;;;;;;;5032119;28;20270;-83
2022/06/03 13:37:52;;;;;;;5.00;4.05;;;;;;;;;;5032008;28;20187;-82
2022/06/03 13:40:28;;;;;;;5.60;4.60;;;;;;;;;;5031921;28;20234;-83
2022/06/03 13:43:24;;;;;;;4.50;4.10;;;;;;;;;;5032390;28;20198;-83
2022/06/03 13:46:03;;;;;;;4.75;4.05;;;;;;;;;;5032246;28;20195;-83
2022/06/03 13:48:49;;;;;;;5.90;3.90;;;;;;;;;;5031885;28;20663;-83
2022/06/03 13:51:33;;;;;;;5.38;3.80;;;;;;;;;;5031659;28;20252;-83
2022/06/03 13:54:03;;;;;;;6.40;4.07;;;;;;;;;;5029744;28;20210;-83
2022/06/03 13:56:31;;;;;;;4.10;3.65;;;;;;;;;;5031586;28;20257;-83
2022/06/03 13:59:02;;;;;;;3.78;3.40;;;;;;;;;;5032177;28;20201;-83
2022/06/03 14:01:32;;;;;;;3.58;3.22;;;;;;;;;;5031948;28;20587;-83
2022/06/03 14:04:02;;;;;;;7.20;3.75;;;;;;;;;;5032092;28;20586;-83
2022/06/03 14:06:32;;;;;;;6.03;3.42;;;;;;;;;;5031808;28;20216;-84
2022/06/03 14:09:05;;;;;;;3.97;3.22;;;;;;;;;;5031757;28;20187;-83
2022/06/03 14:11:35;;;;;;;3.65;3.15;;;;;;;;;;5031802;28;20183;-83
2022/06/03 14:14:10;;;;;;;3.47;3.17;;;;;;;;;;5031980;28;20200;-83
2022/06/03 14:16:42;;;;;;;3.65;3.35;;;;;;;;;;5031661;28;20218;-83
2022/06/03 14:19:29;;;;;;;7.57;3.67;;;;;;;;;;5031595;28;20187;-83
2022/06/03 14:21:56;;;;;;;6.25;4.13;;;;;;;;;;5031801;28;20210;-84
2022/06/03 14:24:28;;;;;;;3.80;3.42;;;;;;;;;;5031798;28;20643;-84
2022/06/03 14:27:01;;;;;;;3.80;3.50;;;;;;;;;;5031732;28;20214;-83
2022/06/03 14:29:33;;;;;;;5.75;3.78;;;;;;;;;;5031623;28;20274;-83
2022/06/03 14:32:03;;;;;;;4.45;3.83;;;;;;;;;;5031666;28;20226;-83
2022/06/03 14:34:34;;;;;;;4.32;3.53;;;;;;;;;;5031135;28;20289;-83
2022/06/03 14:37:03;;;;;;;4.90;3.25;;;;;;;;;;5030946;28;20187;-83
2022/06/03 14:39:32;;;;;;;6.07;4.25;;;;;;;;;;5030692;28;20202;-83
2022/06/03 14:42:01;;;;;;;4.78;3.50;;;;;;;;;;5031114;28;20286;-84
2022/06/03 14:44:32;;;;;;;3.97;3.67;;;;;;;;;;5031153;28;20203;-83
2022/06/03 14:47:03;;;;;;;4.13;3.78;;;;;;;;;;5031037;28;20195;-83
2022/06/03 14:49:34;;;;;;;4.15;3.78;;;;;;;;;;5031372;28;20183;-82
2022/06/03 14:52:05;;;;;;;5.80;3.90;;;;;;;;;;5030827;28;20623;-83
2022/06/03 14:54:35;;;;;;;4.70;3.63;;;;;;;;;;5030777;28;20191;-83
2022/06/03 14:57:05;;;;;;;6.72;4.10;;;;;;;;;;5030967;28;20186;-84
2022/06/03 14:59:57;;;;;;;4.38;3.70;;;;;;;;;;5030894;28;20203;-84
2022/06/03 15:02:33;;;;;;;5.13;3.58;;;;;;;;;;5029922;28;20267;-82
2022/06/03 15:05:03;;;;;;;4.97;4.15;;;;;;;;;;5022012;28;20271;-83
2022/06/03 15:07:33;;;;;;;4.45;4.05;;;;;;;;;;5020637;28;20640;-83
2022/06/03 15:10:03;;;;;;;4.75;3.97;;;;;;;;;;5024132;28;20196;-83
2022/06/03 15:12:32;;;;;;;5.35;3.92;;;;;;;;;;5011195;28;20253;-83
2022/06/03 15:15:01;;;;;;;4.30;3.58;;;;;;;;;;5010858;28;20355;-83
2022/06/03 15:17:31;;;;;;;4.47;4.07;;;;;;;;;;5013335;28;20264;-83
2022/06/03 15:20:00;;;;;;;5.82;4.20;;;;;;;;;;5029293;28;20263;-82
2022/06/03 15:22:29;;;;;;;5.18;3.85;;;;;;;;;;5021228;28;20288;-83
2022/06/03 15:24:59;;;;;;;8.32;3.60;;;;;;;;;;5011095;28;20203;-83
2022/06/03 15:27:29;;;;;;;5.35;4.30;;;;;;;;;;5011326;28;20194;-84
2022/06/03 15:29:57;;;;;;;5.63;3.80;;;;;;;;;;5017238;28;20184;-83
2022/06/03 15:32:26;;;;;;;5.35;4.53;;;;;;;;;;5010892;28;20222;-85
2022/06/03 15:35:01;;;;;;;4.55;4.10;;;;;;;;;;5008467;28;20238;-83
2022/06/03 15:37:28;;;;;;;5.60;4.43;;;;;;;;;;5021571;28;20205;-83
2022/06/03 15:39:55;;;;;;;4.95;4.00;;;;;;;;;;5024743;28;20272;-83
2022/06/03 15:42:24;;;;;;;6.07;4.47;;;;;;;;;;5030434;28;20257;-83
2022/06/03 15:44:51;;;;;;;6.88;4.57;;;;;;;;;;5030023;28;20194;-83
2022/06/03 15:47:23;;;;;;;4.82;4.43;;;;;;;;;;5029882;28;20255;-84
2022/06/03 15:50:11;;;;;;;4.97;4.22;;;;;;;;;;5029602;28;20191;-81
2022/06/03 15:52:44;;;;;;;6.65;4.53;;;;;;;;;;5010575;28;20240;-83
2022/06/03 15:55:12;;;;;;;6.30;4.72;;;;;;;;;;5020031;28;20203;-83
2022/06/03 15:57:50;;;;;;;5.28;4.63;;;;;;;;;;5010053;28;20712;-82
2022/06/03 16:00:20;;;;;;;4.95;4.10;;;;;;;;;;5010425;28;20645;-83
2022/06/03 16:02:56;;;;;;;8.45;4.47;;;;;;;;;;5010455;28;20215;-83
2022/06/03 16:05:29;;;;;;;9.35;4.82;;;;;;;;;;5009834;28;20192;-84
2022/06/03 16:08:35;;;;;;;5.03;4.25;;;;;;;;;;5010188;28;20201;-83
2022/06/03 16:11:10;;;;;;;4.95;4.55;;;;;;;;;;5008424;28;20290;-83
2022/06/03 16:13:49;;;;;;;9.27;4.78;;;;;;;;;;5010439;28;20183;-83
2022/06/03 16:16:28;;;;;;;5.43;4.93;;;;;;;;;;5009656;28;20188;-83
2022/06/03 16:19:03;;;;;;;4.43;4.03;;;;;;;;;;5009971;28;20248;-83
2022/06/03 16:21:43;;;;;;;7.40;4.60;;;;;;;;;;5008696;28;20264;-83
2022/06/03 16:24:21;;;;;;;7.32;4.95;;;;;;;;;;5009209;28;20221;-83
2022/06/03 16:26:52;;;;;;;5.05;4.65;;;;;;;;;;5009268;28;20187;-83
2022/06/03 16:29:29;;;;;;;9.63;4.87;;;;;;;;;;5009145;28;20700;-83